sensor_id;sensor_type;location;lat;lon;timestamp;pressure;altitude;pressure_sealevel;temperature;humidity
69593;BME280;56796;50.122;14.468;2022-08-19T00:03:03;971.16;;;22.74;78.42
69593;BME280;56796;50.122;14.468;2022-08-19T00:22:37;971.15;;;22.5;81.4
69593;BME280;56796;50.122;14.468;2022-08-19T00:42:13;970.86;;;22.28;83.44
69593;BME280;56796;50.122;14.468;2022-08-19T01:01:48;970.76;;;22.11;84.5
69593;BME280;56796;50.122;14.468;2022-08-19T01:21:24;971.29;;;21.96;85.69
69593;BME280;56796;50.122;14.468;2022-08-19T01:40:58;971.31;;;21.93;85.66
69593;BME280;56796;50.122;14.468;2022-08-19T02:00:34;971.36;;;21.74;86.44
69593;BME280;56796;50.122;14.468;2022-08-19T02:20:10;971.73;;;21.63;86.66
69593;BME280;56796;50.122;14.468;2022-08-19T02:39:44;972.06;;;21.48;87.82
69593;BME280;56796;50.122;14.468;2022-08-19T02:59:20;972.12;;;21.21;89.29
69593;BME280;56796;50.122;14.468;2022-08-19T03:18:58;972.2;;;21.25;88.94
69593;BME280;56796;50.122;14.468;2022-08-19T03:38:31;972.18;;;20.96;88.71
69593;BME280;56796;50.122;14.468;2022-08-19T03:58:07;972.02;;;20.91;87.88
69593;BME280;56796;50.122;14.468;2022-08-19T04:17:42;972.02;;;20.92;87.37
69593;BME280;56796;50.122;14.468;2022-08-19T04:37:18;972.52;;;21.04;86.76
69593;BME280;56796;50.122;14.468;2022-08-19T04:56:55;972.98;;;21.47;85.66
69593;BME280;56796;50.122;14.468;2022-08-19T05:16:33;973.31;;;21.95;83.72
69593;BME280;56796;50.122;14.468;2022-08-19T05:36:11;973.34;;;22.52;82.13
69593;BME280;56796;50.122;14.468;2022-08-19T05:55:49;973.63;;;22.72;81.4
69593;BME280;56796;50.122;14.468;2022-08-19T06:15:28;974.06;;;23.25;79.93
69593;BME280;56796;50.122;14.468;2022-08-19T06:35:06;974.28;;;23.17;80.24
69593;BME280;56796;50.122;14.468;2022-08-19T06:54:45;974.4;;;24.35;75.67
69593;BME280;56796;50.122;14.468;2022-08-19T07:14:23;974.62;;;23.66;77.39
69593;BME280;56796;50.122;14.468;2022-08-19T07:33:58;974.35;;;23.82;77.62
69593;BME280;56796;50.122;14.468;2022-08-19T07:53:33;974.13;;;23.91;77.32
69593;BME280;56796;50.122;14.468;2022-08-19T08:13:10;973.51;;;25.09;72.5
69593;BME280;56796;50.122;14.468;2022-08-19T08:32:54;973.8;;;26.13;69.25
69593;BME280;56796;50.122;14.468;2022-08-19T08:52:32;974.51;;;25.72;69.62
69593;BME280;56796;50.122;14.468;2022-08-19T09:12:06;974.45;;;25.57;70.21
69593;BME280;56796;50.122;14.468;2022-08-19T09:31:42;974.47;;;25.85;69
69593;BME280;56796;50.122;14.468;2022-08-19T09:51:19;974.44;;;26.2;68.6
69593;BME280;56796;50.122;14.468;2022-08-19T10:10:56;974.6;;;26.11;66.7
69593;BME280;56796;50.122;14.468;2022-08-19T10:30:30;974.75;;;25.72;68.1
69593;BME280;56796;50.122;14.468;2022-08-19T10:50:10;974.56;;;27.09;64.48
69593;BME280;56796;50.122;14.468;2022-08-19T11:09:51;974.62;;;28.6;59.94
69593;BME280;56796;50.122;14.468;2022-08-19T11:29:34;974.52;;;29.5;56.75
69593;BME280;56796;50.122;14.468;2022-08-19T11:49:08;974.42;;;28.9;59.16
69593;BME280;56796;50.122;14.468;2022-08-19T12:08:44;974.45;;;28.09;60.09
69593;BME280;56796;50.122;14.468;2022-08-19T12:28:20;974.15;;;30.06;56.38
69593;BME280;56796;50.122;14.468;2022-08-19T12:47:57;974.25;;;29.61;56.26
69593;BME280;56796;50.122;14.468;2022-08-19T13:07:32;974.03;;;29.51;55.8
69593;BME280;56796;50.122;14.468;2022-08-19T13:27:10;973.93;;;29.74;55.83
69593;BME280;56796;50.122;14.468;2022-08-19T13:46:47;974.16;;;30.6;53.58
69593;BME280;56796;50.122;14.468;2022-08-19T14:06:28;973.95;;;31.67;51.56
69593;BME280;56796;50.122;14.468;2022-08-19T14:25:48;973.76;;;29.67;55.21
69593;BME280;56796;50.122;14.468;2022-08-19T14:45:26;973.58;;;29.48;56.32
69593;BME280;56796;50.122;14.468;2022-08-19T15:04:45;973.56;;;29.08;56.53
69593;BME280;56796;50.122;14.468;2022-08-19T15:24:20;973.41;;;29.78;55.31
69593;BME280;56796;50.122;14.468;2022-08-19T15:43:56;973.27;;;28.05;59.06
69593;BME280;56796;50.122;14.468;2022-08-19T16:03:27;973.07;;;27.47;61.36
69593;BME280;56796;50.122;14.468;2022-08-19T16:23:00;972.92;;;26.89;63.19
69593;BME280;56796;50.122;14.468;2022-08-19T16:42:34;973.02;;;26.77;63.72
69593;BME280;56796;50.122;14.468;2022-08-19T17:02:09;973.02;;;26.65;64.08
69593;BME280;56796;50.122;14.468;2022-08-19T17:21:44;973.39;;;26.29;64.88
69593;BME280;56796;50.122;14.468;2022-08-19T17:41:18;973.44;;;25.95;66.09
69593;BME280;56796;50.122;14.468;2022-08-19T18:00:53;973.84;;;25.57;67.13
69593;BME280;56796;50.122;14.468;2022-08-19T18:20:28;973.65;;;24.83;70.42
69593;BME280;56796;50.122;14.468;2022-08-19T18:40:02;974.13;;;24.47;71.61
69593;BME280;56796;50.122;14.468;2022-08-19T18:59:34;974.16;;;23.76;76.28
69593;BME280;56796;50.122;14.468;2022-08-19T19:19:08;974.16;;;22.68;83.46
69593;BME280;56796;50.122;14.468;2022-08-19T19:38:41;975.4;;;21.17;90.69
